createdAt,value
2023-02-02T00:00:13.606Z,21.52
2023-02-02T00:05:36.933Z,21.32
2023-02-02T00:10:41.714Z,20.43
2023-02-02T00:15:45.373Z,19.98
2023-02-02T00:20:49.505Z,20.78
2023-02-02T00:25:54.345Z,20.14
2023-02-02T00:30:57.934Z,17.48
2023-02-02T00:36:04.144Z,18.56
2023-02-02T00:41:09.302Z,20.60
2023-02-02T00:46:15.670Z,19.66
2023-02-02T00:51:19.406Z,20.09
2023-02-02T00:56:25.940Z,20.69
2023-02-02T01:01:32.153Z,21.46
2023-02-02T01:06:37.906Z,23.09
2023-02-02T01:11:42.760Z,28.81
2023-02-02T01:16:48.951Z,21.27
2023-02-02T01:21:52.580Z,21.34
2023-02-02T01:26:58.524Z,21.29
2023-02-02T01:32:05.217Z,21.71
2023-02-02T01:37:11.683Z,19.66
2023-02-02T01:42:20.430Z,16.54
2023-02-02T01:47:37.602Z,11.79
2023-02-02T01:52:43.718Z,11.61
2023-02-02T01:57:53.753Z,11.54
2023-02-02T02:03:00.147Z,11.36
2023-02-02T02:08:09.671Z,11.59
2023-02-02T02:13:15.808Z,11.60
2023-02-02T02:18:28.977Z,12.21
2023-02-02T02:24:08.557Z,11.63
2023-02-02T02:29:39.345Z,11.28
2023-02-02T02:34:53.839Z,10.37
2023-02-02T02:40:05.469Z,10.16
2023-02-02T02:45:11.715Z,9.62
2023-02-02T02:50:16.886Z,9.15
2023-02-02T02:55:26.085Z,9.19
2023-02-02T03:00:37.680Z,9.77
2023-02-02T03:05:49.733Z,16.36
2023-02-02T03:10:53.834Z,18.09
2023-02-02T03:16:02.327Z,19.33
2023-02-02T03:21:07.586Z,19.04
2023-02-02T03:26:11.459Z,19.17
2023-02-02T03:31:17.505Z,20.95
2023-02-02T03:36:24.632Z,21.00
2023-02-02T03:41:28.060Z,17.29
2023-02-02T03:46:31.523Z,22.25
2023-02-02T03:51:36.312Z,18.68
2023-02-02T03:56:39.801Z,19.29
2023-02-02T04:01:43.291Z,18.60
2023-02-02T04:06:48.085Z,22.28
2023-02-02T04:11:53.850Z,19.88
2023-02-02T04:16:57.243Z,22.78
2023-02-02T04:22:02.056Z,20.50
2023-02-02T04:27:05.629Z,19.87
2023-02-02T04:32:09.930Z,35.64
2023-02-02T04:37:16.820Z,19.96
2023-02-02T04:42:20.198Z,17.19
2023-02-02T04:47:25.917Z,11.51
2023-02-02T04:52:31.222Z,25.62
2023-02-02T04:57:34.608Z,9.64
2023-02-02T05:02:38.037Z,8.53
2023-02-02T05:07:42.998Z,7.95
2023-02-02T05:12:49.416Z,10.54
2023-02-02T05:17:55.076Z,16.60
2023-02-02T05:22:59.974Z,21.91
2023-02-02T05:28:03.445Z,25.07
2023-02-02T05:33:06.815Z,21.46
2023-02-02T05:38:14.195Z,23.06
2023-02-02T05:43:17.639Z,19.49
2023-02-02T05:48:21.540Z,18.01
2023-02-02T05:53:28.863Z,35.24
2023-02-02T05:58:32.331Z,26.29
2023-02-02T06:03:37.979Z,24.19
2023-02-02T06:08:45.170Z,22.83
2023-02-02T06:13:50.787Z,25.46
2023-02-02T06:18:56.592Z,24.55
2023-02-02T06:24:03.669Z,25.87
2023-02-02T06:29:07.925Z,41.34
2023-02-02T06:34:14.776Z,27.80
2023-02-02T06:39:19.999Z,47.93
2023-02-02T06:44:23.494Z,28.73
2023-02-02T06:49:27.004Z,32.14
2023-02-02T06:54:31.794Z,31.26
2023-02-02T06:59:35.190Z,30.85
2023-02-02T07:04:41.049Z,26.52
2023-02-02T07:09:48.136Z,24.11
2023-02-02T07:15:05.472Z,23.30
2023-02-02T07:20:09.644Z,23.24
2023-02-02T07:25:17.136Z,18.44
2023-02-02T07:30:20.880Z,24.54
2023-02-02T07:35:25.183Z,27.38
2023-02-02T07:40:30.182Z,25.30
2023-02-02T07:45:33.633Z,24.25
2023-02-02T07:50:37.065Z,33.42
2023-02-02T07:55:44.027Z,28.26
2023-02-02T08:00:47.567Z,23.57
2023-02-02T08:05:53.481Z,23.64
2023-02-02T08:10:58.423Z,21.74
2023-02-02T08:16:02.092Z,18.84
2023-02-02T08:21:08.274Z,22.00
2023-02-02T08:26:14.644Z,26.60
2023-02-02T08:31:19.772Z,24.98
2023-02-02T08:36:24.578Z,24.60
2023-02-02T08:41:32.652Z,23.82
2023-02-02T08:46:38.737Z,23.97
2023-02-02T08:51:44.610Z,19.33
2023-02-02T08:56:51.786Z,22.75
2023-02-02T09:01:57.722Z,17.90
2023-02-02T09:07:02.641Z,20.82
2023-02-02T09:12:08.026Z,22.31
2023-02-02T09:17:14.018Z,20.39
2023-02-02T09:22:17.642Z,17.09
2023-02-02T09:27:22.457Z,10.72
2023-02-02T09:32:25.900Z,8.99
2023-02-02T09:37:32.052Z,13.66
2023-02-02T09:42:44.930Z,14.52
2023-02-02T09:47:55.652Z,10.87
2023-02-02T09:53:04.165Z,10.53
2023-02-02T09:58:15.185Z,10.42
2023-02-02T10:03:23.898Z,10.11
2023-02-02T10:08:36.348Z,10.85
2023-02-02T10:13:47.540Z,10.68
2023-02-02T10:18:56.354Z,10.80
2023-02-02T10:24:02.237Z,9.81
2023-02-02T10:29:18.780Z,12.89
2023-02-02T10:34:27.087Z,12.60
2023-02-02T10:39:41.166Z,11.23
2023-02-02T10:44:50.085Z,11.74
2023-02-02T10:50:00.398Z,14.20
2023-02-02T10:55:08.373Z,12.35
2023-02-02T11:00:22.870Z,13.13
2023-02-02T11:05:46.295Z,10.60
2023-02-02T11:10:53.886Z,22.68
2023-02-02T11:16:38.875Z,9.47
2023-02-02T11:21:48.799Z,11.22
2023-02-02T11:26:55.818Z,11.59
2023-02-02T11:32:00.234Z,12.05
2023-02-02T11:37:14.688Z,12.91
2023-02-02T11:42:20.962Z,21.84
2023-02-02T11:47:28.471Z,22.93
2023-02-02T11:52:34.197Z,24.17
2023-02-02T11:57:38.426Z,22.72
2023-02-02T12:02:47.279Z,27.50
2023-02-02T12:07:52.443Z,23.84
2023-02-02T12:13:06.756Z,23.90
2023-02-02T12:18:22.399Z,24.37
2023-02-02T12:23:37.222Z,20.22
2023-02-02T12:29:03.807Z,24.90
2023-02-02T12:34:13.714Z,26.11
2023-02-02T12:39:34.404Z,29.33
2023-02-02T12:44:50.895Z,27.45
2023-02-02T12:50:04.845Z,25.67
2023-02-02T12:55:26.152Z,27.80
2023-02-02T13:00:50.481Z,22.39
2023-02-02T13:06:03.251Z,19.72
2023-02-02T13:11:29.965Z,12.63
2023-02-02T13:16:41.202Z,13.15
2023-02-02T13:21:46.274Z,12.12
2023-02-02T13:26:52.949Z,12.51
2023-02-02T13:32:02.294Z,11.23
2023-02-02T13:37:12.716Z,13.79
2023-02-02T13:42:24.937Z,24.21
2023-02-02T13:47:36.281Z,28.95
2023-02-02T13:52:57.325Z,27.53
2023-02-02T13:58:15.545Z,26.94
2023-02-02T14:03:32.272Z,28.66
2023-02-02T14:08:38.739Z,24.34
2023-02-02T14:14:04.016Z,23.98
2023-02-02T14:19:15.189Z,25.99
2023-02-02T14:24:36.458Z,33.56
2023-02-02T14:30:00.051Z,31.90
2023-02-02T14:35:18.754Z,17.31
2023-02-02T14:40:33.522Z,14.19
2023-02-02T14:45:40.422Z,14.10
2023-02-02T14:50:49.658Z,21.72
2023-02-02T14:55:59.879Z,32.09
2023-02-02T15:01:13.525Z,29.80
2023-02-02T15:06:27.791Z,34.49
2023-02-02T15:11:52.616Z,34.60
2023-02-02T15:17:02.918Z,31.10
2023-02-02T15:22:27.485Z,30.72
2023-02-02T15:27:38.646Z,34.44
2023-02-02T15:32:47.468Z,29.45
2023-02-02T15:37:56.179Z,30.92
2023-02-02T15:43:06.334Z,26.60
2023-02-02T15:48:18.757Z,21.74
2023-02-02T15:53:24.368Z,43.04
2023-02-02T15:58:33.472Z,23.86
2023-02-02T16:03:46.113Z,23.30
2023-02-02T16:08:50.683Z,28.02
2023-02-02T16:14:02.422Z,28.43
2023-02-02T16:19:14.940Z,27.25
2023-02-02T16:24:21.480Z,24.56
2023-02-02T16:29:30.535Z,25.95
2023-02-02T16:34:47.368Z,34.16
2023-02-02T16:39:53.474Z,34.66
2023-02-02T16:44:59.533Z,28.59
2023-02-02T16:50:20.632Z,50.70
2023-02-02T16:55:25.692Z,25.25
2023-02-02T17:00:33.501Z,14.11
2023-02-02T17:05:46.977Z,12.32
2023-02-02T17:11:02.504Z,11.97
2023-02-02T17:16:07.440Z,14.74
2023-02-02T17:21:15.002Z,22.88
2023-02-02T17:26:18.819Z,17.51
2023-02-02T17:31:23.994Z,21.94
2023-02-02T17:36:27.456Z,22.62
2023-02-02T17:41:33.180Z,21.47
2023-02-02T17:46:40.587Z,22.70
2023-02-02T17:51:46.557Z,20.81
2023-02-02T17:56:50.260Z,20.57
2023-02-02T18:01:55.436Z,24.40
2023-02-02T18:07:03.807Z,29.17
2023-02-02T18:12:07.442Z,20.54
2023-02-02T18:17:12.383Z,22.39
2023-02-02T18:22:15.855Z,23.21
2023-02-02T18:27:20.433Z,23.63
2023-02-02T18:32:25.341Z,28.56
2023-02-02T18:37:32.932Z,23.63
2023-02-02T18:42:38.901Z,27.10
2023-02-02T18:47:46.060Z,19.09
2023-02-02T18:52:51.833Z,21.01
2023-02-02T18:57:57.383Z,21.96
2023-02-02T19:03:02.187Z,21.56
2023-02-02T19:08:05.954Z,23.32
2023-02-02T19:13:15.810Z,19.95
2023-02-02T19:18:22.150Z,17.08
2023-02-02T19:23:32.195Z,15.53
2023-02-02T19:28:40.518Z,14.94
2023-02-02T19:33:47.077Z,21.78
2023-02-02T19:38:51.839Z,18.73
2023-02-02T19:43:58.482Z,20.86
2023-02-02T19:49:13.390Z,18.92
2023-02-02T19:54:25.820Z,19.34
2023-02-02T19:59:33.489Z,20.28
2023-02-02T20:04:40.697Z,18.96
2023-02-02T20:09:46.414Z,23.09
2023-02-02T20:14:49.880Z,23.92
2023-02-02T20:19:56.875Z,22.38
2023-02-02T20:25:05.012Z,19.84
2023-02-02T20:30:19.570Z,21.16
2023-02-02T20:35:34.563Z,20.07
2023-02-02T20:40:37.983Z,21.62
2023-02-02T20:45:43.697Z,17.36
2023-02-02T20:50:53.089Z,17.62
2023-02-02T20:56:00.280Z,19.12
2023-02-02T21:01:05.522Z,18.39
2023-02-02T21:06:10.444Z,17.23
2023-02-02T21:11:13.825Z,16.92
2023-02-02T21:16:17.879Z,19.90
2023-02-02T21:21:22.870Z,19.62
2023-02-02T21:26:31.366Z,22.08
2023-02-02T21:31:37.497Z,23.91
2023-02-02T21:36:44.568Z,19.73
2023-02-02T21:41:48.836Z,20.01
2023-02-02T21:46:53.072Z,20.37
2023-02-02T21:52:00.303Z,19.49
2023-02-02T21:57:06.253Z,19.02
2023-02-02T22:02:35.923Z,18.46
2023-02-02T22:07:42.390Z,19.67
2023-02-02T22:12:45.931Z,20.47
2023-02-02T22:17:51.445Z,19.85
2023-02-02T22:22:56.259Z,18.89
2023-02-02T22:28:02.941Z,19.78
2023-02-02T22:33:06.761Z,22.98
2023-02-02T22:38:16.864Z,15.93
2023-02-02T22:43:21.918Z,17.35
2023-02-02T22:48:25.498Z,19.19
2023-02-02T22:53:30.246Z,18.67
2023-02-02T22:58:33.706Z,19.35
2023-02-02T23:03:37.205Z,20.71
2023-02-02T23:08:42.002Z,20.23
2023-02-02T23:13:45.428Z,19.43
2023-02-02T23:18:51.138Z,20.49
2023-02-02T23:23:56.287Z,21.05
2023-02-02T23:29:00.864Z,20.51
2023-02-02T23:34:04.339Z,17.89
2023-02-02T23:39:09.120Z,18.43
2023-02-02T23:44:12.661Z,18.30
2023-02-02T23:49:18.880Z,19.12
2023-02-02T23:54:23.826Z,19.75
2023-02-02T23:59:27.241Z,18.41
